Time;durP1;ratioP1;P1;durP2;ratioP2;P2;SDS_P1;SDS_P2;PMS_P1;PMS_P2;Temp;Humidity;BMP_temperature;BMP_pressure;BME280_temperature;BME280_humidity;BME280_pressure;Samples;Min_cycle;Max_cycle;Signal;HPM_P1;HPM_P2
2022/01/29 00:00:47;;;;;;;12.70;3.00;;;3.20;97.30;;;;;;5053868;28;20803;-86
2022/01/29 00:03:13;;;;;;;13.03;3.00;;;3.20;97.30;;;;;;5060936;28;20191;-86
2022/01/29 00:05:38;;;;;;;11.43;3.10;;;3.20;97.30;;;;;;5074641;28;20185;-87
2022/01/29 00:08:04;;;;;;;14.57;2.70;;;3.20;97.30;;;;;;5074786;28;20174;-87
2022/01/29 00:10:31;;;;;;;13.83;3.33;;;3.20;97.30;;;;;;5074760;28;20178;-86
2022/01/29 00:12:57;;;;;;;12.30;3.17;;;3.20;97.30;;;;;;5074486;28;20435;-86
2022/01/29 00:15:22;;;;;;;13.03;3.60;;;3.20;97.30;;;;;;5074840;28;20412;-86
2022/01/29 00:17:48;;;;;;;18.47;3.70;;;3.20;97.30;;;;;;5074948;28;20790;-87
2022/01/29 00:20:13;;;;;;;13.43;2.87;;;3.30;97.30;;;;;;5074560;28;20198;-87
2022/01/29 00:22:39;;;;;;;8.30;3.10;;;3.30;97.30;;;;;;5074897;28;20174;-87
2022/01/29 00:25:05;;;;;;;8.60;3.27;;;3.30;97.30;;;;;;5074645;28;20170;-87
2022/01/29 00:27:34;;;;;;;10.70;2.70;;;3.30;97.30;;;;;;5072720;28;20171;-86
2022/01/29 00:30:05;;;;;;;10.57;2.60;;;3.30;97.30;;;;;;5059379;28;20978;-87
2022/01/29 00:32:30;;;;;;;19.00;3.10;;;3.40;97.30;;;;;;5072113;28;20413;-87
2022/01/29 00:34:56;;;;;;;4.43;2.37;;;3.40;97.30;;;;;;5069123;28;21030;-87
2022/01/29 00:37:21;;;;;;;19.33;3.57;;;3.40;97.30;;;;;;5054117;28;20278;-87
2022/01/29 00:39:47;;;;;;;15.53;2.53;;;3.40;97.30;;;;;;5053753;28;20278;-86
2022/01/29 00:42:13;;;;;;;6.43;3.40;;;3.40;97.30;;;;;;5072131;28;20711;-86
2022/01/29 00:44:39;;;;;;;10.80;2.60;;;3.40;97.30;;;;;;5054149;28;20191;-87
2022/01/29 00:47:04;;;;;;;12.90;5.10;;;3.40;97.30;;;;;;5058773;28;20478;-87
2022/01/29 00:49:30;;;;;;;18.37;3.43;;;3.40;97.30;;;;;;5074118;28;20181;-87
2022/01/29 00:51:55;;;;;;;14.47;4.60;;;3.40;97.30;;;;;;5092287;28;20166;-87
2022/01/29 00:54:21;;;;;;;17.50;3.60;;;3.40;97.30;;;;;;5055352;28;20194;-87
2022/01/29 00:56:46;;;;;;;8.50;2.97;;;3.50;97.30;;;;;;5053811;28;20206;-87
2022/01/29 00:59:12;;;;;;;13.50;3.10;;;3.50;97.30;;;;;;5053852;28;20210;-87
2022/01/29 01:01:37;;;;;;;16.30;4.43;;;3.50;97.30;;;;;;5058056;28;20238;-87
2022/01/29 01:04:03;;;;;;;8.17;2.93;;;3.50;97.30;;;;;;5054253;28;20191;-87
2022/01/29 01:06:28;;;;;;;12.13;2.60;;;3.50;97.30;;;;;;5062108;28;20167;-87
2022/01/29 01:08:54;;;;;;;20.47;3.20;;;3.50;97.30;;;;;;5073704;28;20170;-87
2022/01/29 01:11:19;;;;;;;20.77;2.87;;;3.50;97.30;;;;;;5092063;28;20170;-87
2022/01/29 01:13:45;;;;;;;13.53;3.07;;;3.50;97.30;;;;;;5076830;28;20575;-87
2022/01/29 01:16:10;;;;;;;15.03;3.13;;;3.50;97.30;;;;;;5077820;28;20775;-87
2022/01/29 01:18:36;;;;;;;17.63;3.47;;;3.40;97.30;;;;;;5095857;28;20198;-87
2022/01/29 01:21:01;;;;;;;8.03;2.60;;;3.40;97.30;;;;;;5067323;28;20163;-87
2022/01/29 01:23:27;;;;;;;4.67;2.50;;;3.40;97.30;;;;;;5057314;28;20225;-87
2022/01/29 01:25:53;;;;;;;10.97;2.70;;;3.50;97.30;;;;;;5057712;28;20171;-86
2022/01/29 01:28:18;;;;;;;11.13;3.10;;;3.50;97.30;;;;;;5057490;28;20213;-86
2022/01/29 01:30:44;;;;;;;24.57;2.90;;;3.40;97.30;;;;;;5076576;28;20175;-86
2022/01/29 01:33:09;;;;;;;18.97;5.13;;;3.40;97.30;;;;;;5072515;28;20226;-87
2022/01/29 01:35:44;;;;;;;16.27;2.63;;;3.40;97.30;;;;;;5057465;28;20168;-87
2022/01/29 01:40:40;;;;;;;10.53;2.67;;;3.40;97.30;;;;;;5075454;28;20414;-86
2022/01/29 01:43:06;;;;;;;9.63;2.50;;;3.40;97.30;;;;;;5057394;28;20441;-86
2022/01/29 01:45:31;;;;;;;19.00;3.37;;;3.40;97.30;;;;;;5058123;28;20409;-86
2022/01/29 01:47:58;;;;;;;8.10;2.90;;;3.40;97.30;;;;;;5077551;28;20220;-87
2022/01/29 01:50:23;;;;;;;11.13;2.87;;;3.40;97.30;;;;;;5077387;28;20181;-86
2022/01/29 01:52:50;;;;;;;8.70;2.70;;;3.40;97.30;;;;;;5077143;28;20436;-86
2022/01/29 01:55:16;;;;;;;16.20;3.00;;;3.40;97.30;;;;;;5077084;28;20182;-87
2022/01/29 01:57:41;;;;;;;7.90;3.47;;;3.40;97.30;;;;;;5077111;28;20504;-86
2022/01/29 02:00:09;;;;;;;16.53;3.40;;;3.40;97.30;;;;;;5077051;28;20546;-87
2022/01/29 02:02:34;;;;;;;10.37;2.17;;;3.40;97.30;;;;;;5076927;28;20178;-86
2022/01/29 02:05:00;;;;;;;12.83;2.70;;;3.40;97.30;;;;;;5076897;28;20423;-87
2022/01/29 02:07:26;;;;;;;11.43;3.30;;;3.40;97.30;;;;;;5062607;28;20293;-87
2022/01/29 02:09:51;;;;;;;7.90;2.47;;;3.40;97.30;;;;;;5063060;28;20257;-87
2022/01/29 02:12:16;;;;;;;10.73;2.70;;;3.40;97.30;;;;;;5076645;28;20220;-87
2022/01/29 02:14:45;;;;;;;12.17;3.33;;;3.40;97.30;;;;;;5076659;28;20249;-87
2022/01/29 02:17:10;;;;;;;11.13;3.23;;;3.40;97.30;;;;;;5076487;28;20175;-87
2022/01/29 02:19:37;;;;;;;10.10;2.93;;;3.40;97.30;;;;;;5076552;28;20459;-86
2022/01/29 02:22:04;;;;;;;7.67;3.20;;;3.40;97.30;;;;;;5076298;28;20183;-87
2022/01/29 02:24:29;;;;;;;10.13;3.30;;;3.40;97.30;;;;;;5058506;28;20487;-86
2022/01/29 02:26:55;;;;;;;9.30;3.30;;;3.40;97.30;;;;;;5076423;28;20409;-86
2022/01/29 02:29:21;;;;;;;6.73;2.50;;;3.40;97.30;;;;;;5094538;28;20181;-87
2022/01/29 02:31:55;;;;;;;19.60;4.50;;;3.40;97.30;;;;;;5076508;28;20246;-86
2022/01/29 02:34:20;;;;;;;21.63;3.60;;;3.40;97.30;;;;;;5062483;28;20979;-87
2022/01/29 02:36:46;;;;;;;11.20;2.87;;;3.40;97.30;;;;;;5056398;28;20424;-87
2022/01/29 02:39:13;;;;;;;7.03;2.33;;;3.40;97.30;;;;;;5067283;28;20273;-87
2022/01/29 02:41:42;;;;;;;10.93;3.67;;;3.40;97.30;;;;;;5094299;28;20415;-86
2022/01/29 02:44:09;;;;;;;10.00;3.50;;;3.40;97.30;;;;;;5076211;28;20440;-87
2022/01/29 02:47:15;;;;;;;6.97;2.97;;;3.50;97.30;;;;;;5075629;28;20428;-87
2022/01/29 02:49:26;;;;;;;13.00;3.20;;;3.50;97.30;;;;;;5088630;28;20428;-87
2022/01/29 02:51:55;;;;;;;8.93;3.40;;;3.50;97.30;;;;;;5090388;28;20424;-86
2022/01/29 02:54:22;;;;;;;17.83;2.87;;;3.50;97.30;;;;;;5075945;28;20206;-86
2022/01/29 02:56:48;;;;;;;11.73;3.43;;;3.50;97.30;;;;;;5076160;28;20420;-87
2022/01/29 02:59:14;;;;;;;4.73;2.70;;;3.50;97.30;;;;;;5094033;28;20859;-87
2022/01/29 03:01:40;;;;;;;14.93;3.20;;;3.60;97.30;;;;;;5074674;28;20170;-86
2022/01/29 03:04:06;;;;;;;6.40;2.53;;;3.60;97.30;;;;;;5082114;28;20697;-86
2022/01/29 03:06:32;;;;;;;9.33;3.00;;;3.60;97.30;;;;;;5055593;28;20426;-86
2022/01/29 03:08:59;;;;;;;7.23;3.07;;;3.60;97.30;;;;;;5056156;28;20980;-86
2022/01/29 03:11:25;;;;;;;5.23;3.30;;;3.60;97.30;;;;;;5055840;28;20437;-86
2022/01/29 03:13:51;;;;;;;6.10;3.10;;;3.60;97.30;;;;;;5055500;28;20491;-86
2022/01/29 03:16:17;;;;;;;7.90;2.93;;;3.60;97.30;;;;;;5060016;28;20190;-86
2022/01/29 03:18:43;;;;;;;6.23;3.70;;;3.70;97.30;;;;;;5075292;28;20456;-86
2022/01/29 03:21:09;;;;;;;5.20;3.20;;;3.70;97.30;;;;;;5075287;28;20957;-87
2022/01/29 03:23:34;;;;;;;17.07;3.57;;;3.70;97.30;;;;;;5074761;28;20245;-86
2022/01/29 03:26:00;;;;;;;9.33;3.20;;;3.80;97.30;;;;;;5075282;28;20167;-87
2022/01/29 03:28:27;;;;;;;16.63;3.60;;;3.80;97.30;;;;;;5093552;28;20171;-86
2022/01/29 03:30:52;;;;;;;7.13;3.10;;;3.80;97.30;;;;;;5075343;28;20181;-87
2022/01/29 03:33:18;;;;;;;5.60;3.20;;;3.80;97.30;;;;;;5075099;28;20424;-86
2022/01/29 03:35:43;;;;;;;12.07;3.23;;;3.90;97.30;;;;;;5074847;28;20645;-86
2022/01/29 03:38:09;;;;;;;12.60;3.03;;;3.90;97.30;;;;;;5068827;28;20217;-86
2022/01/29 03:40:35;;;;;;;8.43;3.00;;;3.90;97.30;;;;;;5055023;28;20258;-87
2022/01/29 03:43:08;;;;;;;5.40;2.57;;;3.90;97.30;;;;;;5075089;28;20190;-86
2022/01/29 03:45:34;;;;;;;6.30;3.30;;;3.90;97.30;;;;;;5074991;28;20411;-86
2022/01/29 03:47:59;;;;;;;6.47;3.03;;;4.00;97.30;;;;;;5074873;28;20408;-87
2022/01/29 03:50:25;;;;;;;10.10;3.37;;;4.00;97.30;;;;;;5074806;28;20451;-86
2022/01/29 03:52:51;;;;;;;17.60;3.83;;;4.00;97.30;;;;;;5074125;28;20739;-85
2022/01/29 03:55:16;;;;;;;5.90;3.13;;;4.00;97.30;;;;;;5093240;28;20173;-87
2022/01/29 03:57:42;;;;;;;4.53;2.80;;;4.00;97.30;;;;;;5074899;28;20181;-87
2022/01/29 04:00:08;;;;;;;8.17;2.90;;;4.00;97.30;;;;;;5074380;28;20228;-87
2022/01/29 04:02:34;;;;;;;20.23;3.47;;;4.00;97.30;;;;;;5074893;28;20170;-86
2022/01/29 04:04:59;;;;;;;4.83;2.87;;;4.00;97.30;;;;;;5074756;28;20770;-87
2022/01/29 04:07:25;;;;;;;6.50;2.70;;;4.10;97.30;;;;;;5074660;28;20170;-86
2022/01/29 04:09:52;;;;;;;11.73;3.37;;;4.10;97.30;;;;;;5092574;28;20253;-86
2022/01/29 04:12:17;;;;;;;8.93;3.33;;;4.10;97.30;;;;;;5079569;28;20170;-87
2022/01/29 04:14:43;;;;;;;8.63;2.93;;;4.10;97.30;;;;;;5074672;28;20439;-87
2022/01/29 04:17:11;;;;;;;10.03;3.17;;;4.10;97.30;;;;;;5069985;28;20312;-88
2022/01/29 04:19:37;;;;;;;13.47;3.30;;;4.10;97.30;;;;;;5092567;28;20444;-87
2022/01/29 04:22:04;;;;;;;6.90;3.40;;;4.00;97.30;;;;;;5067951;28;20448;-87
2022/01/29 04:24:29;;;;;;;5.60;3.40;;;4.00;97.30;;;;;;5054485;28;20465;-87
2022/01/29 04:26:55;;;;;;;6.97;3.50;;;4.00;97.30;;;;;;5072452;28;20409;-87
2022/01/29 04:29:21;;;;;;;10.40;3.10;;;4.00;97.30;;;;;;5061767;28;20293;-87
2022/01/29 04:32:10;;;;;;;8.67;3.73;;;4.00;97.30;;;;;;5074181;28;20530;-87
2022/01/29 04:34:35;;;;;;;12.40;3.10;;;4.00;97.30;;;;;;5074472;28;20210;-86
2022/01/29 04:37:01;;;;;;;7.63;3.10;;;4.00;97.30;;;;;;5074386;28;20412;-87
2022/01/29 04:39:26;;;;;;;10.60;3.93;;;4.00;97.30;;;;;;5074190;28;20198;-87
2022/01/29 04:41:52;;;;;;;5.53;2.13;;;4.00;97.30;;;;;;5074462;28;20175;-87
2022/01/29 04:44:17;;;;;;;10.53;3.23;;;4.00;97.30;;;;;;5074371;28;20194;-87
2022/01/29 04:46:43;;;;;;;10.80;3.00;;;4.10;97.30;;;;;;5075288;28;20641;-87
2022/01/29 04:49:09;;;;;;;13.17;3.30;;;4.10;97.30;;;;;;5081295;28;20170;-87
2022/01/29 04:51:35;;;;;;;7.47;2.93;;;4.10;97.30;;;;;;5086652;28;20415;-86
2022/01/29 04:54:00;;;;;;;6.10;2.70;;;4.10;97.30;;;;;;5060494;28;20380;-87
2022/01/29 04:56:25;;;;;;;6.20;2.73;;;4.10;97.30;;;;;;5061270;28;20266;-86
2022/01/29 04:58:51;;;;;;;9.70;3.30;;;4.10;97.30;;;;;;5060754;28;20209;-86
2022/01/29 05:01:16;;;;;;;5.63;2.97;;;4.10;97.30;;;;;;5067247;28;20243;-86
2022/01/29 05:03:42;;;;;;;12.57;3.27;;;4.10;97.30;;;;;;5080326;28;20190;-86
2022/01/29 05:06:10;;;;;;;12.10;4.00;;;4.10;97.30;;;;;;5098651;28;20231;-86
2022/01/29 05:08:39;;;;;;;7.33;2.87;;;4.10;97.30;;;;;;5080536;28;20646;-86
2022/01/29 05:11:06;;;;;;;9.80;3.40;;;4.10;97.30;;;;;;5080644;28;20419;-86
2022/01/29 05:13:33;;;;;;;6.20;3.00;;;4.10;97.30;;;;;;5078217;28;20432;-87
2022/01/29 05:27:08;;;;;;;17.63;3.70;;;4.20;97.30;;;;;;5078267;28;20486;-86
2022/01/29 05:29:36;;;;;;;6.57;3.53;;;4.20;97.30;;;;;;5060417;28;20433;-87
2022/01/29 05:32:05;;;;;;;6.73;3.50;;;4.20;97.30;;;;;;5060359;28;20451;-87
2022/01/29 05:34:30;;;;;;;9.43;3.53;;;4.20;97.30;;;;;;5074019;28;20444;-86
2022/01/29 05:36:56;;;;;;;5.57;3.90;;;4.20;97.30;;;;;;5079050;28;20432;-87
2022/01/29 05:39:22;;;;;;;6.70;3.77;;;4.20;97.30;;;;;;5098329;28;20553;-87
2022/01/29 05:41:48;;;;;;;11.83;4.10;;;4.10;97.30;;;;;;5080335;28;20244;-86
2022/01/29 05:44:13;;;;;;;11.73;3.53;;;4.10;97.30;;;;;;5080382;28;20474;-86
2022/01/29 05:46:39;;;;;;;11.03;4.30;;;4.10;97.30;;;;;;5098682;28;20166;-86
2022/01/29 05:49:05;;;;;;;11.10;4.87;;;4.10;97.30;;;;;;5080280;28;20217;-86
2022/01/29 05:51:31;;;;;;;8.30;4.10;;;4.10;97.30;;;;;;5065381;28;20175;-87
2022/01/29 05:54:01;;;;;;;11.83;4.10;;;4.10;97.30;;;;;;5060056;28;20447;-86
2022/01/29 05:56:27;;;;;;;10.67;4.40;;;4.10;97.30;;;;;;5060158;28;20423;-86
2022/01/29 05:58:53;;;;;;;10.57;4.40;;;4.10;97.30;;;;;;5058438;28;20460;-87
2022/01/29 06:01:19;;;;;;;10.20;4.90;;;4.10;97.30;;;;;;5056434;28;20425;-87
2022/01/29 06:03:45;;;;;;;10.43;4.07;;;4.10;97.30;;;;;;5056967;28;20198;-88
2022/01/29 06:06:10;;;;;;;11.53;4.73;;;4.10;97.30;;;;;;5057042;28;20179;-87
2022/01/29 06:08:36;;;;;;;17.13;5.03;;;4.10;97.30;;;;;;5079782;28;20232;-87
2022/01/29 06:11:01;;;;;;;9.20;4.03;;;4.10;97.30;;;;;;5094781;28;20180;-87
2022/01/29 06:13:27;;;;;;;9.47;5.03;;;4.10;97.30;;;;;;5076726;28;20206;-86
2022/01/29 06:15:53;;;;;;;12.17;6.80;;;4.10;97.30;;;;;;5076822;28;20217;-87
2022/01/29 06:18:21;;;;;;;13.00;4.90;;;4.10;97.30;;;;;;5076458;28;20278;-87
2022/01/29 06:20:56;;;;;;;13.73;5.27;;;4.10;97.30;;;;;;5071836;28;20936;-87
2022/01/29 06:23:29;;;;;;;14.43;5.10;;;4.10;97.30;;;;;;5056135;28;20837;-87
2022/01/29 06:25:55;;;;;;;13.60;5.57;;;4.10;97.30;;;;;;5056617;28;21193;-88
2022/01/29 06:28:21;;;;;;;9.33;4.63;;;4.10;97.30;;;;;;5090261;28;20428;-87
2022/01/29 06:30:46;;;;;;;10.20;5.60;;;4.10;97.30;;;;;;5084241;28;20441;-87
2022/01/29 06:33:13;;;;;;;14.50;5.87;;;4.10;97.30;;;;;;5056517;28;20191;-86
2022/01/29 06:35:40;;;;;;;15.90;5.60;;;4.10;97.30;;;;;;5070830;28;20671;-87
2022/01/29 06:38:08;;;;;;;9.33;4.63;;;4.10;97.30;;;;;;5076410;28;20413;-87
2022/01/29 06:40:34;;;;;;;13.53;4.43;;;4.10;97.30;;;;;;5073914;28;20464;-87
2022/01/29 06:43:04;;;;;;;11.23;5.03;;;4.10;97.30;;;;;;5076670;28;20439;-87
2022/01/29 06:45:31;;;;;;;15.73;5.27;;;4.10;97.30;;;;;;5094383;28;20510;-87
2022/01/29 06:47:56;;;;;;;12.23;5.50;;;4.10;97.30;;;;;;5076153;28;20500;-87
2022/01/29 06:50:22;;;;;;;14.73;5.40;;;4.10;97.30;;;;;;5074501;28;20436;-87
2022/01/29 06:52:48;;;;;;;14.07;4.80;;;4.10;97.30;;;;;;5055605;28;20235;-87
2022/01/29 06:55:13;;;;;;;21.07;6.50;;;4.00;97.30;;;;;;5056050;28;20497;-87
2022/01/29 06:57:39;;;;;;;9.63;4.77;;;4.00;97.30;;;;;;5073821;28;20641;-87
2022/01/29 07:00:08;;;;;;;9.90;4.57;;;4.10;97.30;;;;;;5057223;28;20207;-86
2022/01/29 07:02:37;;;;;;;12.00;4.87;;;4.10;97.30;;;;;;5055571;28;20175;-87
2022/01/29 07:05:08;;;;;;;9.40;4.60;;;4.10;97.30;;;;;;5065314;28;20429;-87
2022/01/29 07:07:34;;;;;;;14.00;5.27;;;4.10;97.30;;;;;;5055282;28;20470;-87
2022/01/29 07:09:59;;;;;;;19.60;7.17;;;4.10;97.30;;;;;;5072778;28;20418;-87
2022/01/29 07:12:25;;;;;;;9.80;5.27;;;4.10;97.30;;;;;;5055585;28;20175;-88
2022/01/29 07:14:51;;;;;;;10.13;5.83;;;4.10;97.30;;;;;;5056308;28;20187;-87
2022/01/29 07:17:18;;;;;;;14.70;5.83;;;4.10;97.30;;;;;;5073859;28;20423;-87
2022/01/29 07:19:45;;;;;;;10.90;6.00;;;4.10;97.30;;;;;;5055904;28;20899;-85
2022/01/29 07:22:11;;;;;;;16.37;5.90;;;4.20;97.30;;;;;;5075596;28;20428;-86
2022/01/29 07:24:37;;;;;;;10.93;5.00;;;4.20;97.30;;;;;;5075677;28;20502;-87
2022/01/29 07:27:04;;;;;;;15.83;6.40;;;4.30;97.30;;;;;;5083444;28;20430;-87
2022/01/29 07:29:30;;;;;;;13.10;5.80;;;4.20;97.30;;;;;;5073478;28;20967;-87
2022/01/29 07:31:56;;;;;;;14.03;5.90;;;4.20;97.30;;;;;;5093145;28;20420;-86
2022/01/29 07:34:23;;;;;;;18.50;6.47;;;4.20;97.30;;;;;;5059131;28;20195;-86
2022/01/29 07:36:49;;;;;;;12.90;5.63;;;4.20;97.30;;;;;;5066806;28;20416;-86
2022/01/29 07:39:15;;;;;;;12.27;5.00;;;4.20;97.30;;;;;;5070337;28;20457;-85
2022/01/29 07:41:40;;;;;;;14.23;5.40;;;4.30;97.30;;;;;;5055301;28;20420;-86
2022/01/29 07:44:06;;;;;;;17.10;5.30;;;4.30;97.30;;;;;;5073347;28;20732;-85
2022/01/29 07:46:31;;;;;;;14.10;4.83;;;4.30;97.30;;;;;;5075162;28;20180;-87
2022/01/29 07:48:58;;;;;;;19.53;5.37;;;4.30;97.30;;;;;;5075258;28;20718;-87
2022/01/29 07:51:23;;;;;;;14.03;5.10;;;4.30;97.30;;;;;;5074913;28;20420;-87
2022/01/29 07:53:49;;;;;;;11.60;4.93;;;4.30;97.30;;;;;;5092765;28;20194;-87
2022/01/29 07:56:14;;;;;;;16.77;6.10;;;4.30;97.30;;;;;;5093422;28;20664;-87
2022/01/29 07:58:42;;;;;;;12.00;5.77;;;4.30;97.30;;;;;;5075132;28;20205;-87
2022/01/29 08:01:08;;;;;;;11.57;5.00;;;4.30;97.30;;;;;;5067606;28;20167;-88
2022/01/29 08:03:34;;;;;;;10.40;5.07;;;4.30;97.30;;;;;;5054997;28;20490;-87
2022/01/29 08:05:59;;;;;;;12.20;4.70;;;4.30;97.30;;;;;;5054668;28;20661;-87
2022/01/29 08:08:25;;;;;;;20.33;5.03;;;4.30;97.30;;;;;;5069117;28;20174;-86
2022/01/29 08:10:52;;;;;;;11.13;4.00;;;4.30;97.30;;;;;;5072800;28;20174;-87
2022/01/29 08:13:18;;;;;;;12.23;6.00;;;4.30;97.30;;;;;;5060896;28;20191;-87
2022/01/29 08:15:44;;;;;;;14.90;5.60;;;4.30;97.30;;;;;;5090128;28;21083;-87
2022/01/29 08:18:09;;;;;;;10.67;4.43;;;4.30;97.30;;;;;;5079628;28;20173;-87
2022/01/29 08:20:35;;;;;;;18.47;6.20;;;4.30;97.30;;;;;;5066374;28;20818;-85
2022/01/29 08:23:06;;;;;;;8.33;4.23;;;4.30;97.30;;;;;;5053187;28;20693;-89
2022/01/29 08:25:31;;;;;;;16.20;6.13;;;4.30;97.30;;;;;;5068964;28;20186;-87
2022/01/29 08:27:57;;;;;;;7.50;4.53;;;4.30;97.30;;;;;;5074079;28;20459;-87
2022/01/29 08:30:22;;;;;;;11.60;4.83;;;4.30;97.30;;;;;;5075087;28;20171;-87
2022/01/29 08:32:48;;;;;;;10.30;5.40;;;4.40;97.30;;;;;;5074296;28;20579;-87
2022/01/29 08:35:15;;;;;;;16.60;5.20;;;4.40;97.30;;;;;;5091716;28;20217;-87
2022/01/29 08:37:41;;;;;;;8.63;4.67;;;4.40;97.30;;;;;;5075174;28;20209;-87
2022/01/29 08:40:07;;;;;;;9.53;4.60;;;4.40;97.30;;;;;;5091912;28;20896;-88
2022/01/29 08:42:33;;;;;;;9.30;4.90;;;4.40;97.30;;;;;;5074422;28;20174;-88
2022/01/29 08:45:00;;;;;;;14.33;5.50;;;4.40;97.30;;;;;;5074335;28;20751;-87
2022/01/29 08:47:26;;;;;;;9.33;4.67;;;4.50;97.30;;;;;;5074217;28;20170;-88
2022/01/29 08:49:51;;;;;;;12.77;6.07;;;4.50;97.30;;;;;;5089313;28;20493;-88
2022/01/29 08:52:17;;;;;;;10.50;4.43;;;4.50;97.30;;;;;;5074254;28;20178;-88
2022/01/29 08:54:42;;;;;;;11.37;4.83;;;4.50;97.30;;;;;;5074683;28;20687;-88
2022/01/29 08:57:08;;;;;;;11.60;5.10;;;4.60;97.30;;;;;;5064373;28;20179;-87
2022/01/29 08:59:33;;;;;;;10.03;4.30;;;4.60;97.30;;;;;;5065015;28;20198;-87
2022/01/29 09:01:59;;;;;;;7.53;4.20;;;4.60;97.30;;;;;;5091074;28;20192;-89
2022/01/29 09:04:24;;;;;;;10.10;4.67;;;4.70;97.30;;;;;;5065866;28;20202;-88
2022/01/29 09:06:50;;;;;;;18.33;5.63;;;4.70;97.30;;;;;;5058445;28;20174;-89
2022/01/29 09:09:20;;;;;;;12.83;4.60;;;4.70;97.30;;;;;;5064793;28;20236;-88
2022/01/29 09:11:49;;;;;;;9.60;4.30;;;4.80;97.30;;;;;;5096801;28;20209;-88
2022/01/29 09:14:53;;;;;;;;;;;;;;;;;;;;;
2022/01/29 09:18:06;;;;;;;8.70;4.00;;;4.80;97.30;;;;;;5068477;28;20509;-89
2022/01/29 09:20:40;;;;;;;11.37;4.00;;;4.90;97.30;;;;;;5016245;28;20462;-88
2022/01/29 09:23:08;;;;;;;8.93;4.00;;;4.90;97.30;;;;;;5073390;28;20468;-88
2022/01/29 09:26:34;;;;;;;8.67;4.20;;;4.90;97.30;;;;;;5081834;28;20515;-88
2022/01/29 09:32:36;;;;;;;10.73;3.90;;;5.00;97.30;;;;;;5060658;22;20938;-86
2022/01/29 09:35:03;;;;;;;9.93;4.37;;;5.10;97.30;;;;;;5015640;28;20817;-85
2022/01/29 09:37:28;;;;;;;12.67;4.67;;;5.10;97.30;;;;;;5017611;28;20169;-84
2022/01/29 09:39:54;;;;;;;10.83;5.17;;;5.20;97.30;;;;;;5015478;28;20569;-85
2022/01/29 09:42:20;;;;;;;9.17;4.23;;;5.30;97.30;;;;;;5028282;28;20219;-85
2022/01/29 09:44:48;;;;;;;14.80;4.60;;;5.30;97.30;;;;;;5016778;28;20204;-85
2022/01/29 09:47:17;;;;;;;16.73;4.40;;;5.40;97.30;;;;;;5017060;28;20427;-84
2022/01/29 09:49:44;;;;;;;10.00;4.60;;;5.40;97.30;;;;;;5016658;28;20698;-84
2022/01/29 09:52:10;;;;;;;11.00;4.10;;;5.50;97.30;;;;;;5015817;28;20451;-84
2022/01/29 09:54:36;;;;;;;10.00;4.47;;;5.60;97.30;;;;;;5033546;28;20796;-85
2022/01/29 09:57:01;;;;;;;10.60;4.93;;;5.60;97.30;;;;;;5015914;28;20180;-85
2022/01/29 09:59:27;;;;;;;8.10;4.17;;;5.60;97.30;;;;;;5016193;28;20513;-85
2022/01/29 10:01:53;;;;;;;10.37;5.20;;;5.60;97.30;;;;;;5016649;28;20195;-85
2022/01/29 10:04:18;;;;;;;7.87;3.77;;;5.60;97.30;;;;;;5015712;28;20212;-85
2022/01/29 10:06:47;;;;;;;8.43;4.10;;;5.70;97.30;;;;;;5016749;28;20768;-85
2022/01/29 10:09:32;;;;;;;12.20;5.70;;;5.70;97.30;;;;;;5029736;28;20192;-84
2022/01/29 10:12:27;;;;;;;13.00;4.80;;;5.80;97.30;;;;;;5011504;28;20527;-85
2022/01/29 10:15:03;;;;;;;9.57;4.23;;;5.80;97.30;;;;;;5014964;28;20427;-85
2022/01/29 10:17:39;;;;;;;10.13;4.10;;;5.90;97.30;;;;;;5012719;28;20996;-85
2022/01/29 10:20:11;;;;;;;10.60;4.43;;;6.00;97.30;;;;;;5016815;28;20485;-84
2022/01/29 10:22:37;;;;;;;6.47;3.20;;;6.10;97.30;;;;;;5017175;28;20972;-85
2022/01/29 10:25:09;;;;;;;11.07;5.00;;;6.20;97.30;;;;;;5015649;28;20443;-85
2022/01/29 10:27:35;;;;;;;8.87;4.00;;;6.30;97.30;;;;;;5012426;28;20451;-85
2022/01/29 10:30:02;;;;;;;8.30;3.77;;;6.40;97.30;;;;;;5017558;28;20566;-86
2022/01/29 10:32:29;;;;;;;7.93;3.50;;;6.50;97.30;;;;;;5017574;28;20204;-85
2022/01/29 10:34:56;;;;;;;10.40;4.77;;;6.50;97.30;;;;;;5014676;28;20467;-85
2022/01/29 10:37:25;;;;;;;7.80;3.20;;;6.60;97.30;;;;;;5017102;28;20448;-85
2022/01/29 10:40:15;;;;;;;6.40;3.60;;;6.60;97.30;;;;;;5018077;28;20524;-85
2022/01/29 10:42:44;;;;;;;7.60;4.10;;;6.70;97.30;;;;;;5017942;28;20455;-87
2022/01/29 10:45:10;;;;;;;7.37;3.40;;;6.80;97.30;;;;;;5014952;28;20504;-85
2022/01/29 10:47:55;;;;;;;5.83;3.30;;;6.90;97.30;;;;;;5017037;28;20997;-87
2022/01/29 10:50:21;;;;;;;5.30;3.13;;;6.90;97.30;;;;;;5004407;28;20215;-84
2022/01/29 10:52:48;;;;;;;6.47;3.03;;;6.90;97.30;;;;;;5012334;28;20493;-85
2022/01/29 10:55:14;;;;;;;4.57;2.57;;;6.90;97.30;;;;;;5014895;28;20192;-88
2022/01/29 10:57:48;;;;;;;7.07;2.63;;;7.00;97.30;;;;;;5012072;28;20412;-86
2022/01/29 11:00:26;;;;;;;4.97;2.70;;;7.00;97.30;;;;;;5016678;28;20235;-88
2022/01/29 11:02:53;;;;;;;5.00;2.77;;;7.10;97.30;;;;;;5012584;28;20535;-86
2022/01/29 11:05:23;;;;;;;7.50;2.53;;;7.10;97.30;;;;;;5013118;28;20446;-85
2022/01/29 11:07:52;;;;;;;10.13;4.73;;;7.10;97.30;;;;;;5031159;28;20435;-86
2022/01/29 11:10:19;;;;;;;5.40;3.30;;;7.20;97.30;;;;;;5013323;28;20438;-86
2022/01/29 11:12:48;;;;;;;9.60;3.20;;;7.20;97.30;;;;;;5012985;28;20456;-86
2022/01/29 11:15:18;;;;;;;6.30;2.70;;;7.20;97.30;;;;;;5013758;28;20608;-86
2022/01/29 11:17:45;;;;;;;10.77;3.47;;;7.30;97.30;;;;;;5014048;28;20924;-85
2022/01/29 11:20:12;;;;;;;4.30;2.33;;;7.30;97.30;;;;;;5015312;28;20825;-86
2022/01/29 11:22:43;;;;;;;6.30;4.30;;;7.30;97.30;;;;;;5016023;28;21079;-88
2022/01/29 11:25:15;;;;;;;6.10;2.80;;;7.30;97.30;;;;;;5014722;28;20395;-86
2022/01/29 11:27:43;;;;;;;7.63;2.87;;;7.30;97.30;;;;;;5017257;28;20909;-86
2022/01/29 11:30:13;;;;;;;5.13;3.07;;;7.30;97.30;;;;;;5005480;28;20431;-86
2022/01/29 11:32:41;;;;;;;4.80;2.57;;;7.40;97.30;;;;;;4993704;28;20492;-85
2022/01/29 11:35:19;;;;;;;3.47;2.10;;;7.40;97.30;;;;;;5003921;28;20419;-89
2022/01/29 11:37:50;;;;;;;5.47;2.40;;;7.50;97.30;;;;;;5014036;28;20457;-87
2022/01/29 11:40:38;;;;;;;2.67;2.07;;;7.50;97.30;;;;;;5015542;28;20471;-88
2022/01/29 11:43:18;;;;;;;5.80;2.87;;;7.50;97.30;;;;;;5013185;28;20489;-87
2022/01/29 11:45:47;;;;;;;2.00;1.77;;;7.60;97.30;;;;;;5013949;28;20419;-85
2022/01/29 11:48:22;;;;;;;4.33;1.83;;;7.50;97.30;;;;;;5015601;28;20422;-88
2022/01/29 11:50:49;;;;;;;3.93;1.90;;;7.50;97.30;;;;;;5022182;28;20834;-85
2022/01/29 11:53:17;;;;;;;5.17;2.37;;;7.50;97.30;;;;;;5018176;28;20501;-84
2022/01/29 11:55:52;;;;;;;5.23;2.83;;;7.50;97.30;;;;;;5014099;28;21039;-84
2022/01/29 11:58:29;;;;;;;4.87;2.47;;;7.70;97.30;;;;;;4995120;28;20420;-87
2022/01/29 12:00:58;;;;;;;3.83;2.13;;;7.70;97.30;;;;;;5007737;28;20469;-84
2022/01/29 12:03:44;;;;;;;5.60;3.20;;;7.60;97.30;;;;;;5014350;28;20435;-86
2022/01/29 12:06:30;;;;;;;6.10;2.83;;;7.60;97.30;;;;;;5014996;28;20431;-85
2022/01/29 12:09:07;;;;;;;4.13;2.50;;;7.50;97.30;;;;;;5016444;28;20760;-83
2022/01/29 12:11:41;;;;;;;6.00;2.50;;;7.50;97.30;;;;;;5011639;28;20440;-85
2022/01/29 12:14:13;;;;;;;3.87;2.73;;;7.60;97.30;;;;;;5012343;28;20429;-86
2022/01/29 12:16:55;;;;;;;6.33;2.10;;;7.60;97.30;;;;;;5014074;28;20444;-86
2022/01/29 12:19:46;;;;;;;4.83;2.23;;;7.60;97.30;;;;;;5013687;28;20500;-85
2022/01/29 12:22:16;;;;;;;3.87;2.30;;;7.60;97.30;;;;;;5007929;28;20757;-88
2022/01/29 12:24:49;;;;;;;3.90;2.00;;;7.70;97.30;;;;;;5016689;28;20430;-87
2022/01/29 12:27:15;;;;;;;3.37;2.10;;;7.70;97.30;;;;;;5010803;28;20443;-88
2022/01/29 12:29:41;;;;;;;3.57;2.20;;;7.70;97.30;;;;;;5014950;28;20990;-88
2022/01/29 12:32:09;;;;;;;4.50;2.33;;;7.70;97.30;;;;;;5014876;28;20514;-87
2022/01/29 12:34:35;;;;;;;3.30;2.10;;;7.70;97.30;;;;;;5034082;28;20459;-86
2022/01/29 12:37:13;;;;;;;3.93;2.50;;;7.70;97.30;;;;;;5015665;28;20419;-89
2022/01/29 12:39:41;;;;;;;2.97;1.80;;;7.70;97.30;;;;;;5031294;28;20207;-90
2022/01/29 12:44:37;;;;;;;2.77;1.93;;;7.80;97.30;;;;;;5026973;28;20435;-89
2022/01/29 12:47:03;;;;;;;4.60;2.40;;;7.70;97.30;;;;;;4998645;28;20431;-89
2022/01/29 12:49:41;;;;;;;3.70;2.10;;;7.70;97.30;;;;;;5005672;28;20427;-90
2022/01/29 12:52:08;;;;;;;4.50;2.70;;;7.70;97.30;;;;;;5005871;28;20446;-90
2022/01/29 12:54:34;;;;;;;4.83;2.80;;;7.70;97.30;;;;;;5009469;28;20470;-89
2022/01/29 12:57:00;;;;;;;3.37;2.20;;;7.70;97.30;;;;;;4992914;28;20444;-91
2022/01/29 12:59:26;;;;;;;9.53;2.73;;;7.70;97.30;;;;;;4995087;28;20459;-90
2022/01/29 13:01:56;;;;;;;7.60;3.40;;;7.70;97.30;;;;;;4995235;28;20826;-91
2022/01/29 13:04:22;;;;;;;5.87;3.20;;;7.70;97.30;;;;;;4997133;28;20451;-91
2022/01/29 13:07:02;;;;;;;8.57;4.03;;;7.70;97.30;;;;;;5014365;28;20925;-90
2022/01/29 13:09:28;;;;;;;9.63;4.23;;;7.70;97.30;;;;;;5016912;28;20422;-89
2022/01/29 13:11:58;;;;;;;5.07;3.07;;;7.70;97.30;;;;;;5018592;28;20470;-89
2022/01/29 13:14:25;;;;;;;5.90;2.97;;;7.60;97.30;;;;;;5014105;28;20169;-90
2022/01/29 13:16:52;;;;;;;5.10;2.87;;;7.60;97.30;;;;;;5028104;28;20778;-88